createdAt,value
2022-08-22T00:01:35.797Z,69.06
2022-08-22T00:03:11.174Z,68.83
2022-08-22T00:04:42.027Z,68.99
2022-08-22T00:07:49.305Z,68.86
2022-08-22T00:10:53.940Z,68.83
2022-08-22T00:14:01.667Z,68.78
2022-08-22T00:17:22.845Z,68.36
2022-08-22T00:20:29.888Z,67.89
2022-08-22T00:23:44.613Z,68.12
2022-08-22T00:26:49.416Z,69.41
2022-08-22T00:29:53.100Z,69.47
2022-08-22T00:32:57.501Z,69.73
2022-08-22T00:36:08.034Z,71.43
2022-08-22T00:39:28.533Z,72.50
2022-08-22T00:42:49.013Z,71.87
2022-08-22T00:46:09.330Z,70.83
2022-08-22T00:49:10.909Z,70.57
2022-08-22T00:52:30.817Z,72.51
2022-08-22T00:55:41.695Z,73.31
2022-08-22T00:58:49.548Z,73.07
2022-08-22T01:02:01.552Z,73.91
2022-08-22T01:05:07.740Z,73.04
2022-08-22T01:08:32.697Z,72.98
2022-08-22T01:11:40.266Z,71.96
2022-08-22T01:15:02.169Z,71.32
2022-08-22T01:18:22.585Z,70.47
2022-08-22T01:21:43.025Z,69.56
2022-08-22T01:25:04.517Z,68.55
2022-08-22T01:28:12.666Z,68.01
2022-08-22T01:31:33.410Z,67.92
2022-08-22T01:34:58.303Z,68.13
2022-08-22T01:38:18.442Z,67.52
2022-08-22T01:41:26.149Z,67.39
2022-08-22T01:44:45.958Z,68.07
2022-08-22T01:47:50.044Z,68.81
2022-08-22T01:51:02.297Z,69.82
2022-08-22T01:54:22.412Z,69.96
2022-08-22T01:57:24.409Z,69.68
2022-08-22T02:00:35.543Z,70.56
2022-08-22T02:03:40.356Z,71.32
2022-08-22T02:07:00.860Z,71.83
2022-08-22T02:10:14.772Z,71.64
2022-08-22T02:13:23.289Z,71.50
2022-08-22T02:16:30.853Z,71.54
2022-08-22T02:19:38.478Z,72.37
2022-08-22T02:22:49.882Z,71.29
2022-08-22T02:26:03.826Z,70.95
2022-08-22T02:29:05.467Z,71.19
2022-08-22T02:32:10.522Z,71.88
2022-08-22T02:35:21.085Z,71.95
2022-08-22T02:38:25.651Z,71.53
2022-08-22T02:41:27.269Z,71.92
2022-08-22T02:44:36.776Z,71.08
2022-08-22T02:47:57.367Z,72.70
2022-08-22T02:51:01.454Z,74.59
2022-08-22T02:54:14.583Z,74.89
2022-08-22T02:57:20.650Z,74.09
2022-08-22T03:00:32.146Z,73.89
2022-08-22T03:03:38.474Z,73.74
2022-08-22T03:06:42.694Z,74.40
2022-08-22T03:09:47.015Z,73.04
2022-08-22T03:12:58.429Z,75.73
2022-08-22T03:16:02.662Z,77.42
2022-08-22T03:19:18.982Z,78.94
2022-08-22T03:22:39.640Z,80.90
2022-08-22T03:25:46.612Z,83.43
2022-08-22T03:28:59.601Z,84.03
2022-08-22T03:32:15.998Z,83.75
2022-08-22T03:35:31.074Z,83.03
2022-08-22T03:38:32.698Z,85.40
2022-08-22T03:41:41.929Z,85.23
2022-08-22T03:45:07.133Z,85.53
2022-08-22T03:48:18.030Z,85.99
2022-08-22T03:51:37.970Z,85.82
2022-08-22T03:54:50.355Z,85.94
2022-08-22T03:57:51.985Z,85.69
2022-08-22T04:00:56.064Z,85.56
2022-08-22T04:04:10.550Z,85.35
2022-08-22T04:07:32.380Z,84.05
2022-08-22T04:10:51.715Z,84.87
2022-08-22T04:13:53.518Z,84.60
2022-08-22T04:17:31.030Z,84.59
2022-08-22T04:20:51.490Z,84.22
2022-08-22T04:24:05.005Z,84.48
2022-08-22T04:27:06.621Z,85.92
2022-08-22T04:30:25.429Z,86.05
2022-08-22T04:33:32.019Z,87.00
2022-08-22T04:36:41.009Z,86.26
2022-08-22T04:39:51.708Z,86.75
2022-08-22T04:42:54.696Z,86.37
2022-08-22T04:46:05.841Z,85.11
2022-08-22T04:49:09.338Z,85.03
2022-08-22T04:52:29.864Z,84.87
2022-08-22T04:55:37.651Z,85.71
2022-08-22T04:58:39.226Z,86.81
2022-08-22T05:01:57.837Z,86.20
2022-08-22T05:05:04.390Z,85.72
2022-08-22T05:08:06.091Z,85.48
2022-08-22T05:11:09.465Z,88.11
2022-08-22T05:14:24.098Z,86.05
2022-08-22T05:17:26.124Z,83.34
2022-08-22T05:20:27.993Z,81.79
2022-08-22T05:23:30.793Z,82.75
2022-08-22T05:26:39.806Z,80.94
2022-08-22T05:29:42.993Z,81.98
2022-08-22T05:32:49.473Z,81.03
2022-08-22T05:35:57.728Z,80.99
2022-08-22T05:39:00.810Z,80.12
2022-08-22T05:42:02.992Z,79.85
2022-08-22T05:45:06.878Z,79.74
2022-08-22T05:48:18.379Z,79.41
2022-08-22T05:51:22.187Z,78.70
2022-08-22T05:54:33.705Z,77.67
2022-08-22T05:57:37.384Z,78.14
2022-08-22T06:00:40.149Z,78.51
2022-08-22T06:03:46.028Z,80.53
2022-08-22T06:06:52.207Z,80.24
2022-08-22T06:10:03.159Z,79.32
2022-08-22T06:13:12.321Z,77.51
2022-08-22T06:16:16.989Z,78.37
2022-08-22T06:19:20.199Z,77.18
2022-08-22T06:22:26.451Z,77.42
2022-08-22T06:25:32.936Z,77.52
2022-08-22T06:28:37.057Z,77.90
2022-08-22T06:31:42.725Z,77.81
2022-08-22T06:34:45.205Z,78.81
2022-08-22T06:37:46.786Z,79.41
2022-08-22T06:40:49.469Z,78.60
2022-08-22T06:43:52.808Z,79.49
2022-08-22T06:46:55.677Z,82.41
2022-08-22T06:49:58.595Z,81.45
2022-08-22T06:53:02.690Z,78.40
2022-08-22T06:56:06.112Z,77.47
2022-08-22T06:59:09.385Z,77.81
2022-08-22T07:02:31.205Z,78.96
2022-08-22T07:05:36.328Z,79.95
2022-08-22T07:08:39.261Z,80.64
2022-08-22T07:11:41.102Z,78.53
2022-08-22T07:14:43.927Z,78.96
2022-08-22T07:17:50.643Z,76.81
2022-08-22T07:20:55.136Z,80.00
2022-08-22T07:23:57.416Z,75.29
2022-08-22T07:27:18.804Z,76.01
2022-08-22T07:30:27.475Z,76.34
2022-08-22T07:33:46.587Z,75.12
2022-08-22T07:36:50.214Z,74.27
2022-08-22T07:39:51.853Z,73.60
2022-08-22T07:42:55.425Z,76.42
2022-08-22T07:45:58.739Z,76.22
2022-08-22T07:49:09.879Z,73.73
2022-08-22T07:52:12.203Z,75.76
2022-08-22T07:55:18.386Z,75.64
2022-08-22T07:58:20.020Z,75.18
2022-08-22T08:01:22.360Z,74.83
2022-08-22T08:04:26.243Z,73.93
2022-08-22T08:07:29.068Z,75.17
2022-08-22T08:10:32.629Z,76.10
2022-08-22T08:13:35.815Z,76.14
2022-08-22T08:16:44.751Z,75.87
2022-08-22T08:19:47.329Z,75.51
2022-08-22T08:22:49.030Z,76.07
2022-08-22T08:25:53.410Z,75.88
2022-08-22T08:28:55.705Z,75.53
2022-08-22T08:31:57.326Z,75.99
2022-08-22T08:35:07.179Z,75.33
2022-08-22T08:38:22.590Z,75.62
2022-08-22T08:41:31.179Z,75.89
2022-08-22T08:44:42.088Z,76.65
2022-08-22T08:47:43.758Z,77.03
2022-08-22T08:51:09.251Z,76.90
2022-08-22T08:54:17.846Z,77.37
2022-08-22T08:57:21.350Z,77.64
2022-08-22T09:00:43.434Z,76.78
2022-08-22T09:03:45.066Z,76.34
2022-08-22T09:07:05.920Z,75.97
2022-08-22T09:10:43.809Z,76.84
2022-08-22T09:13:45.916Z,77.63
2022-08-22T09:16:52.638Z,77.87
2022-08-22T09:20:17.693Z,79.04
2022-08-22T09:23:21.154Z,78.49
2022-08-22T09:26:52.175Z,79.45
2022-08-22T09:29:57.227Z,83.10
2022-08-22T09:33:03.417Z,80.84
2022-08-22T09:36:14.703Z,79.91
2022-08-22T09:39:19.213Z,79.54
2022-08-22T09:42:26.232Z,78.27
2022-08-22T09:45:40.026Z,80.54
2022-08-22T09:48:53.681Z,80.92
2022-08-22T09:52:34.037Z,81.64
2022-08-22T09:55:41.138Z,80.71
2022-08-22T09:58:44.189Z,80.78
2022-08-22T10:02:06.030Z,81.73
2022-08-22T10:05:10.522Z,81.57
2022-08-22T10:08:13.764Z,81.43
2022-08-22T10:11:18.945Z,81.79
2022-08-22T10:14:22.836Z,80.62
2022-08-22T10:17:31.460Z,80.69
2022-08-22T10:20:36.390Z,80.02
2022-08-22T10:23:40.672Z,80.66
2022-08-22T10:26:45.357Z,79.07
2022-08-22T10:29:56.294Z,77.92
2022-08-22T10:33:01.448Z,79.05
2022-08-22T10:36:07.893Z,78.40
2022-08-22T10:39:16.918Z,78.06
2022-08-22T10:42:28.709Z,78.95
2022-08-22T10:45:37.962Z,81.11
2022-08-22T10:48:47.021Z,80.14
2022-08-22T10:51:51.210Z,79.10
2022-08-22T10:54:57.690Z,78.85
2022-08-22T10:58:06.028Z,80.05
2022-08-22T11:01:37.980Z,79.69
2022-08-22T11:04:34.354Z,80.10
2022-08-22T11:07:54.789Z,79.04
2022-08-22T11:11:03.985Z,77.65
2022-08-22T11:14:15.033Z,76.92
2022-08-22T11:17:30.292Z,76.34
2022-08-22T11:20:54.529Z,73.94
2022-08-22T11:24:17.475Z,72.20
2022-08-22T11:27:39.934Z,67.96
2022-08-22T11:31:03.621Z,66.42
2022-08-22T11:34:27.896Z,64.11
2022-08-22T11:37:43.850Z,63.19
2022-08-22T11:40:46.962Z,66.33
2022-08-22T11:43:59.450Z,67.81
2022-08-22T11:47:09.101Z,66.60
2022-08-22T11:50:22.205Z,68.04
2022-08-22T11:53:36.149Z,66.15
2022-08-22T11:56:50.053Z,64.11
2022-08-22T12:00:05.126Z,64.99
2022-08-22T12:03:18.361Z,65.96
2022-08-22T12:06:24.994Z,65.73
2022-08-22T12:09:27.896Z,66.71
2022-08-22T12:12:31.615Z,66.21
2022-08-22T12:15:54.729Z,64.65
2022-08-22T12:18:56.338Z,65.25
2022-08-22T12:22:30.219Z,63.61
2022-08-22T12:25:32.044Z,59.85
2022-08-22T12:28:40.090Z,58.45
2022-08-22T12:32:14.603Z,58.97
2022-08-22T12:35:29.966Z,58.99
2022-08-22T12:38:37.960Z,60.76
2022-08-22T12:42:15.394Z,61.85
2022-08-22T12:45:19.780Z,64.44
2022-08-22T12:48:21.337Z,65.25
2022-08-22T12:51:24.628Z,66.45
2022-08-22T12:54:41.303Z,66.85
2022-08-22T12:57:50.503Z,67.15
2022-08-22T13:00:59.266Z,67.61
2022-08-22T13:04:02.971Z,68.39
2022-08-22T13:07:19.914Z,68.40
2022-08-22T13:10:31.162Z,68.50
2022-08-22T13:13:37.129Z,68.65
2022-08-22T13:16:48.983Z,69.28
2022-08-22T13:19:54.466Z,69.61
2022-08-22T13:22:56.073Z,69.55
2022-08-22T13:26:01.193Z,69.42
2022-08-22T13:29:24.532Z,69.67
2022-08-22T13:32:44.475Z,69.89
2022-08-22T13:35:52.399Z,70.29
2022-08-22T13:39:03.532Z,69.45
2022-08-22T13:42:07.659Z,70.23
2022-08-22T13:45:23.598Z,69.21
2022-08-22T13:48:28.571Z,68.86
2022-08-22T13:51:44.480Z,68.49
2022-08-22T13:54:49.036Z,68.50
2022-08-22T13:58:17.051Z,68.27
2022-08-22T14:01:21.523Z,65.70
2022-08-22T14:04:36.258Z,64.56
2022-08-22T14:07:39.127Z,62.57
2022-08-22T14:10:44.062Z,59.73
2022-08-22T14:13:47.849Z,58.95
2022-08-22T14:16:51.896Z,58.21
2022-08-22T14:20:06.924Z,56.85
2022-08-22T14:23:23.965Z,57.28
2022-08-22T14:26:33.026Z,56.89
2022-08-22T14:29:42.149Z,57.54
2022-08-22T14:32:49.568Z,57.56
2022-08-22T14:35:53.095Z,56.92
2022-08-22T14:38:59.653Z,57.00
2022-08-22T14:42:17.545Z,57.13
2022-08-22T14:45:21.955Z,56.40
2022-08-22T14:48:31.009Z,55.72
2022-08-22T14:51:33.780Z,56.42
2022-08-22T14:54:35.848Z,56.01
2022-08-22T14:57:41.193Z,56.79
2022-08-22T15:00:44.362Z,56.95
2022-08-22T15:03:51.687Z,56.65
2022-08-22T15:06:54.374Z,56.98
2022-08-22T15:10:02.994Z,57.58
2022-08-22T15:13:07.888Z,57.99
2022-08-22T15:16:16.600Z,58.83
2022-08-22T15:19:24.463Z,58.59
2022-08-22T15:22:27.723Z,58.52
2022-08-22T15:25:31.172Z,58.88
2022-08-22T15:28:35.865Z,57.95
2022-08-22T15:31:52.064Z,57.17
2022-08-22T15:34:54.102Z,57.14
2022-08-22T15:37:56.005Z,56.67
2022-08-22T15:41:17.742Z,56.71
2022-08-22T15:44:32.453Z,56.73
2022-08-22T15:47:36.209Z,57.39
2022-08-22T15:50:39.481Z,56.91
2022-08-22T15:53:43.528Z,57.60
2022-08-22T15:57:03.914Z,57.71
2022-08-22T16:00:28.033Z,57.89
2022-08-22T16:03:30.265Z,57.55
2022-08-22T16:06:51.522Z,58.20
2022-08-22T16:09:53.856Z,59.19
2022-08-22T16:13:14.009Z,61.62
2022-08-22T16:16:24.813Z,63.28
2022-08-22T16:19:27.341Z,64.31
2022-08-22T16:22:47.483Z,63.29
2022-08-22T16:25:52.920Z,63.41
2022-08-22T16:29:03.975Z,63.06
2022-08-22T16:32:06.891Z,63.50
2022-08-22T16:35:08.694Z,63.05
2022-08-22T16:38:10.339Z,62.56
2022-08-22T16:41:28.401Z,62.71
2022-08-22T16:44:29.968Z,63.25
2022-08-22T16:47:36.205Z,60.76
2022-08-22T16:50:37.790Z,59.54
2022-08-22T16:53:45.757Z,59.75
2022-08-22T16:56:56.655Z,59.64
2022-08-22T17:00:22.739Z,59.56
2022-08-22T17:03:27.629Z,57.48
2022-08-22T17:06:32.337Z,56.57
2022-08-22T17:09:36.945Z,56.41
2022-08-22T17:12:46.303Z,52.16
2022-08-22T17:16:02.463Z,50.70
2022-08-22T17:19:05.063Z,55.49
2022-08-22T17:22:10.397Z,58.31
2022-08-22T17:25:19.619Z,60.53
2022-08-22T17:28:22.463Z,60.85
2022-08-22T17:31:24.182Z,62.51
2022-08-22T17:34:32.475Z,63.90
2022-08-22T17:37:52.614Z,63.97
2022-08-22T17:40:57.026Z,62.15
2022-08-22T17:44:02.686Z,58.93
2022-08-22T17:47:08.713Z,60.22
2022-08-22T17:50:16.511Z,62.81
2022-08-22T17:53:18.093Z,61.79
2022-08-22T17:56:20.592Z,63.51
2022-08-22T17:59:28.282Z,64.21
2022-08-22T18:02:33.672Z,64.71
2022-08-22T18:05:45.077Z,65.33
2022-08-22T18:12:35.157Z,67.37
2022-08-22T18:15:52.523Z,67.83
2022-08-22T18:18:54.200Z,68.79
2022-08-22T18:22:14.921Z,69.05
2022-08-22T18:25:19.549Z,69.94
2022-08-22T18:28:23.058Z,70.65
2022-08-22T18:31:24.619Z,71.15
2022-08-22T18:34:28.981Z,71.82
2022-08-22T18:37:33.003Z,72.39
2022-08-22T18:40:37.061Z,72.75
2022-08-22T18:43:51.608Z,72.88
2022-08-22T18:46:53.477Z,73.46
2022-08-22T18:49:55.444Z,74.18
2022-08-22T18:52:57.790Z,74.54
2022-08-22T18:56:10.513Z,74.67
2022-08-22T18:59:25.868Z,74.81
2022-08-22T19:02:34.045Z,74.73
2022-08-22T19:05:45.380Z,74.53
2022-08-22T19:08:53.527Z,74.68
2022-08-22T19:11:55.778Z,75.27
2022-08-22T19:15:09.945Z,76.04
2022-08-22T19:18:23.716Z,76.32
2022-08-22T19:21:45.843Z,76.33
2022-08-22T19:25:09.051Z,76.88
2022-08-22T19:28:11.389Z,77.38
2022-08-22T19:31:31.774Z,77.05
2022-08-22T19:34:47.856Z,77.08
2022-08-22T19:37:56.790Z,77.83
2022-08-22T19:40:58.682Z,78.34
2022-08-22T19:44:00.226Z,78.53
2022-08-22T19:47:28.930Z,78.69
2022-08-22T19:50:33.087Z,78.75
2022-08-22T19:53:37.735Z,78.52
2022-08-22T19:56:59.589Z,78.58
2022-08-22T20:00:12.362Z,78.65
2022-08-22T20:03:19.809Z,78.70
2022-08-22T20:06:43.131Z,79.45
2022-08-22T20:09:52.976Z,80.04
2022-08-22T20:12:59.629Z,80.31
2022-08-22T20:16:13.665Z,81.18
2022-08-22T20:19:16.625Z,81.64
2022-08-22T20:22:30.344Z,82.41
2022-08-22T20:25:43.343Z,83.04
2022-08-22T20:28:47.129Z,83.50
2022-08-22T20:31:52.667Z,84.29
2022-08-22T20:34:58.689Z,85.02
2022-08-22T20:38:06.627Z,86.50
2022-08-22T20:41:20.996Z,86.52
2022-08-22T20:44:24.262Z,88.90
2022-08-22T20:47:27.060Z,88.25
2022-08-22T20:50:41.330Z,89.18
2022-08-22T20:53:43.050Z,88.95
2022-08-22T20:56:52.964Z,89.55
2022-08-22T20:59:55.449Z,90.61
2022-08-22T21:03:05.624Z,90.91
2022-08-22T21:06:14.660Z,91.10
2022-08-22T21:09:39.221Z,91.10
2022-08-22T21:12:40.850Z,91.00
2022-08-22T21:15:47.028Z,90.58
2022-08-22T21:18:49.603Z,91.24
2022-08-22T21:21:51.635Z,90.88
2022-08-22T21:24:58.206Z,91.45
2022-08-22T21:28:00.899Z,92.48
2022-08-22T21:31:12.924Z,93.15
2022-08-22T21:34:15.535Z,92.96
2022-08-22T21:37:18.562Z,93.87
2022-08-22T21:40:22.694Z,94.53
2022-08-22T21:43:29.217Z,94.34
2022-08-22T21:46:30.818Z,93.93
2022-08-22T21:49:33.502Z,93.72
2022-08-22T21:52:39.382Z,93.43
2022-08-22T21:55:44.683Z,94.46
2022-08-22T21:58:46.413Z,94.72
2022-08-22T22:01:48.005Z,95.34
2022-08-22T22:04:51.146Z,96.10
2022-08-22T22:07:53.897Z,96.49
2022-08-22T22:10:56.878Z,97.02
2022-08-22T22:13:58.975Z,96.84
2022-08-22T22:17:00.686Z,97.04
2022-08-22T22:20:02.496Z,96.49
2022-08-22T22:23:04.120Z,95.83
2022-08-22T22:26:05.854Z,95.21
2022-08-22T22:29:09.184Z,95.53
2022-08-22T22:32:12.843Z,95.68
2022-08-22T22:35:14.510Z,95.72
2022-08-22T22:38:20.564Z,96.37
2022-08-22T22:41:25.823Z,95.95
2022-08-22T22:44:27.782Z,96.17
2022-08-22T22:47:30.017Z,95.66
2022-08-22T22:50:31.647Z,95.38
2022-08-22T22:53:38.254Z,95.04
2022-08-22T22:56:42.162Z,95.46
2022-08-22T22:59:49.585Z,95.78
2022-08-22T23:02:52.775Z,95.70
2022-08-22T23:05:54.402Z,95.45
2022-08-22T23:08:56.188Z,95.69
2022-08-22T23:11:57.818Z,95.40
2022-08-22T23:14:59.409Z,94.81
2022-08-22T23:18:01.264Z,95.12
2022-08-22T23:21:10.394Z,95.35
2022-08-22T23:24:12.577Z,95.82
2022-08-22T23:27:14.216Z,96.38
2022-08-22T23:30:15.854Z,97.70
2022-08-22T23:33:17.515Z,98.13
2022-08-22T23:36:19.876Z,98.84
2022-08-22T23:39:22.214Z,99.03
2022-08-22T23:42:23.822Z,98.42
2022-08-22T23:45:25.498Z,98.62
2022-08-22T23:48:27.124Z,98.82
2022-08-22T23:51:28.852Z,99.35
2022-08-22T23:54:30.514Z,99.21
2022-08-22T23:57:32.442Z,99.45
